Time;durP1;ratioP1;P1;durP2;ratioP2;P2;SDS_P1;SDS_P2;PMS_P1;PMS_P2;Temp;Humidity;BMP_temperature;BMP_pressure;BME280_temperature;BME280_humidity;BME280_pressure;Samples;Min_cycle;Max_cycle;Signal;HPM_P1;HPM_P2
2023/06/23 00:02:17;;;;;;;;;;;;;;;21.93;30.24;98183.69;4946840;29;898;-81
2023/06/23 00:04:43;;;;;;;;;;;;;;;21.90;30.17;98178.91;4945403;29;833;-81
2023/06/23 00:07:08;;;;;;;;;;;;;;;22.01;29.84;98185.09;4962205;28;909;-80
2023/06/23 00:09:36;;;;;;;;;;;;;;;22.10;29.75;98179.59;4960465;29;950;-81
2023/06/23 00:12:01;;;;;;;;;;;;;;;21.90;30.33;98184.56;4962544;29;1086;-81
2023/06/23 00:14:27;;;;;;;;;;;;;;;22.11;30.00;98189.72;4945558;29;1910;-81
2023/06/23 00:16:52;;;;;;;;;;;;;;;22.07;29.91;98184.13;4946402;29;921;-81
2023/06/23 00:19:18;;;;;;;;;;;;;;;22.09;29.69;98186.50;4928950;29;1215;-81
2023/06/23 00:21:46;;;;;;;;;;;;;;;21.95;30.03;98170.66;4959350;28;1172;-81
2023/06/23 00:24:11;;;;;;;;;;;;;;;21.96;30.22;98182.78;4967608;28;1358;-81
2023/06/23 00:26:37;;;;;;;;;;;;;;;21.93;29.92;98181.66;4997695;28;1295;-81
2023/06/23 00:29:05;;;;;;;;;;;;;;;22.07;29.88;98183.31;4980018;28;920;-80
2023/06/23 00:31:30;;;;;;;;;;;;;;;21.76;30.41;98189.34;4981026;28;955;-81
2023/06/23 00:33:56;;;;;;;;;;;;;;;22.16;30.02;98183.50;4980135;28;1985;-81
2023/06/23 00:36:21;;;;;;;;;;;;;;;21.98;30.23;98183.16;4981232;28;940;-81
2023/06/23 00:38:47;;;;;;;;;;;;;;;22.19;29.79;98190.34;4999011;28;1277;-81
2023/06/23 00:41:12;;;;;;;;;;;;;;;21.88;30.10;98187.06;5000218;28;903;-81
2023/06/23 00:43:38;;;;;;;;;;;;;;;21.96;30.03;98189.25;4983359;28;962;-81
2023/06/23 00:46:07;;;;;;;;;;;;;;;22.14;29.80;98188.84;4970142;28;1216;-81
2023/06/23 00:48:33;;;;;;;;;;;;;;;22.21;29.83;98187.84;4963155;28;976;-81
2023/06/23 00:50:59;;;;;;;;;;;;;;;22.20;29.66;98184.22;4965862;28;1168;-81
2023/06/23 00:53:25;;;;;;;;;;;;;;;22.04;30.16;98178.53;4947745;28;1922;-81
2023/06/23 00:55:51;;;;;;;;;;;;;;;21.91;30.48;98181.28;4965487;28;1118;-81
2023/06/23 00:58:16;;;;;;;;;;;;;;;22.10;29.88;98188.91;4978667;28;884;-81
2023/06/23 01:00:42;;;;;;;;;;;;;;;21.94;30.43;98179.59;4984809;28;1253;-81
2023/06/23 01:03:07;;;;;;;;;;;;;;;22.18;29.64;98183.09;5013653;28;920;-81
2023/06/23 01:05:35;;;;;;;;;;;;;;;22.03;30.11;98188.28;5003306;28;959;-81
2023/06/23 01:08:08;;;;;;;;;;;;;;;22.15;29.80;98181.13;4986733;28;1184;-81
2023/06/23 01:10:48;;;;;;;;;;;;;;;22.31;29.51;98186.78;5003077;28;1006;-81
2023/06/23 01:13:15;;;;;;;;;;;;;;;21.97;30.35;98181.56;5018677;28;1914;-80
2023/06/23 01:15:45;;;;;;;;;;;;;;;22.19;29.99;98185.47;5009962;28;910;-80
2023/06/23 01:18:14;;;;;;;;;;;;;;;22.04;30.19;98190.66;5009033;28;1321;-81
2023/06/23 01:20:41;;;;;;;;;;;;;;;21.89;30.25;98191.47;5028409;28;1201;-81
2023/06/23 01:23:14;;;;;;;;;;;;;;;22.29;29.61;98194.94;5026817;28;771;-81
2023/06/23 01:25:58;;;;;;;;;;;;;;;22.27;29.81;98188.91;5028209;28;857;-81
2023/06/23 01:28:42;;;;;;;;;;;;;;;22.28;29.62;98194.13;5043657;28;855;-81
2023/06/23 01:31:09;;;;;;;;;;;;;;;22.18;29.79;98189.56;5046040;28;814;-81
2023/06/23 01:33:44;;;;;;;;;;;;;;;22.12;29.96;98187.69;5010303;28;1918;-81
2023/06/23 01:36:11;;;;;;;;;;;;;;;22.30;29.76;98193.69;5027872;28;829;-81
2023/06/23 01:38:40;;;;;;;;;;;;;;;22.08;29.78;98190.59;5009888;28;1090;-81
2023/06/23 01:41:07;;;;;;;;;;;;;;;22.17;29.74;98196.44;5028313;28;849;-81
2023/06/23 01:43:32;;;;;;;;;;;;;;;21.95;30.28;98189.69;5026306;28;818;-80
2023/06/23 01:46:03;;;;;;;;;;;;;;;21.83;30.34;98192.00;5027588;28;1260;-81
2023/06/23 01:48:29;;;;;;;;;;;;;;;22.19;29.86;98196.81;5009482;28;1094;-80
2023/06/23 01:50:55;;;;;;;;;;;;;;;22.25;29.76;98199.91;5028211;28;879;-81
2023/06/23 01:53:20;;;;;;;;;;;;;;;22.21;29.49;98199.97;5026537;28;1983;-80
2023/06/23 01:55:46;;;;;;;;;;;;;;;22.09;30.05;98209.19;5028011;28;914;-81
2023/06/23 01:58:11;;;;;;;;;;;;;;;22.23;29.72;98208.84;5009841;28;1116;-81
2023/06/23 02:00:37;;;;;;;;;;;;;;;22.06;29.75;98205.19;5010693;28;1184;-81
2023/06/23 02:03:03;;;;;;;;;;;;;;;21.85;30.24;98206.50;5026456;28;976;-81
2023/06/23 02:05:28;;;;;;;;;;;;;;;22.05;30.01;98212.09;4985802;28;880;-81
2023/06/23 02:07:54;;;;;;;;;;;;;;;22.13;29.82;98197.78;4986207;28;895;-80
2023/06/23 02:10:20;;;;;;;;;;;;;;;22.10;29.75;98207.94;4966553;28;1262;-81
2023/06/23 02:12:45;;;;;;;;;;;;;;;22.23;29.69;98197.50;4951097;28;1112;-81
2023/06/23 02:15:11;;;;;;;;;;;;;;;22.26;29.49;98195.81;4950084;28;1989;-81
2023/06/23 02:17:37;;;;;;;;;;;;;;;22.12;29.71;98202.63;4967029;28;904;-81
2023/06/23 02:20:13;;;;;;;;;;;;;;;22.25;29.57;98199.91;4950062;28;1160;-81
2023/06/23 02:22:39;;;;;;;;;;;;;;;22.01;29.94;98202.09;4925177;29;940;-81
2023/06/23 02:25:05;;;;;;;;;;;;;;;22.26;29.67;98198.66;4924496;29;988;-81
2023/06/23 02:27:32;;;;;;;;;;;;;;;22.13;29.95;98204.25;4878970;29;1454;-81
2023/06/23 02:29:58;;;;;;;;;;;;;;;22.03;29.90;98206.09;4923505;29;1156;-81
2023/06/23 02:32:25;;;;;;;;;;;;;;;22.02;29.93;98209.34;4891125;29;1293;-81
2023/06/23 02:34:51;;;;;;;;;;;;;;;22.10;30.03;98207.94;4889725;29;1903;-81
2023/06/23 02:37:17;;;;;;;;;;;;;;;22.34;29.52;98220.72;4915856;29;992;-80
2023/06/23 02:39:45;;;;;;;;;;;;;;;22.06;29.68;98221.38;4889405;29;896;-81
2023/06/23 02:42:12;;;;;;;;;;;;;;;22.24;29.74;98229.47;4891056;29;1162;-81
2023/06/23 02:44:39;;;;;;;;;;;;;;;22.02;29.96;98223.50;4890119;29;1272;-81
2023/06/23 02:47:05;;;;;;;;;;;;;;;22.08;29.96;98218.94;4890488;29;1061;-81
2023/06/23 02:49:31;;;;;;;;;;;;;;;22.04;29.97;98223.88;4905238;29;852;-81
2023/06/23 02:51:59;;;;;;;;;;;;;;;22.10;29.88;98222.09;4906579;29;1282;-80
2023/06/23 02:54:25;;;;;;;;;;;;;;;22.15;29.71;98223.63;4920753;29;1915;-81
2023/06/23 02:56:51;;;;;;;;;;;;;;;22.06;29.67;98227.06;4890837;29;984;-80
2023/06/23 02:59:16;;;;;;;;;;;;;;;21.91;30.05;98225.81;4909901;29;969;-81
2023/06/23 03:01:45;;;;;;;;;;;;;;;22.06;30.03;98227.84;4940475;29;1096;-80
2023/06/23 03:04:12;;;;;;;;;;;;;;;22.30;29.61;98224.88;4971932;28;955;-81
2023/06/23 03:06:38;;;;;;;;;;;;;;;22.04;29.97;98223.88;4950911;28;1445;-81
2023/06/23 03:09:04;;;;;;;;;;;;;;;22.18;29.78;98229.22;5015090;28;1005;-81
2023/06/23 03:11:30;;;;;;;;;;;;;;;21.85;30.34;98220.66;5001780;28;943;-81
2023/06/23 03:13:56;;;;;;;;;;;;;;;22.02;30.00;98226.34;4968546;28;1910;-80
2023/06/23 03:16:32;;;;;;;;;;;;;;;22.20;29.69;98226.72;4969411;28;1198;-81
2023/06/23 03:19:01;;;;;;;;;;;;;;;22.21;29.70;98233.19;4968613;28;740;-81
2023/06/23 03:21:28;;;;;;;;;;;;;;;22.26;29.69;98230.63;4970032;28;1147;-81
2023/06/23 03:23:54;;;;;;;;;;;;;;;22.33;29.57;98230.47;4968523;28;1432;-81
2023/06/23 03:26:20;;;;;;;;;;;;;;;22.02;30.00;98223.50;4985316;28;1144;-79
2023/06/23 03:28:46;;;;;;;;;;;;;;;22.27;29.30;98218.03;4968442;28;940;-80
2023/06/23 03:31:12;;;;;;;;;;;;;;;21.97;30.04;98229.72;4969586;28;1243;-80
2023/06/23 03:33:41;;;;;;;;;;;;;;;22.10;29.84;98228.59;4983323;28;1906;-80
2023/06/23 03:36:13;;;;;;;;;;;;;;;22.12;29.81;98230.97;4954095;28;1232;-80
2023/06/23 03:38:41;;;;;;;;;;;;;;;21.99;30.00;98227.25;4983483;28;1069;-80
2023/06/23 03:41:07;;;;;;;;;;;;;;;22.07;29.79;98222.97;4983640;28;1378;-80
2023/06/23 03:43:34;;;;;;;;;;;;;;;22.26;29.47;98227.00;5023962;28;1708;-81
2023/06/23 03:46:01;;;;;;;;;;;;;;;22.14;29.74;98228.50;5078542;28;1167;-80
2023/06/23 03:48:27;;;;;;;;;;;;;;;22.23;29.45;98225.84;5060038;28;1289;-80
2023/06/23 03:50:52;;;;;;;;;;;;;;;22.28;29.60;98222.50;5024669;28;1213;-81
2023/06/23 03:53:18;;;;;;;;;;;;;;;21.87;30.29;98225.13;5006009;28;965;-80
2023/06/23 03:55:43;;;;;;;;;;;;;;;21.90;30.30;98227.06;5008024;28;1175;-81
2023/06/23 03:58:09;;;;;;;;;;;;;;;22.22;29.39;98224.25;5005786;28;1528;-80
2023/06/23 04:00:35;;;;;;;;;;;;;;;22.14;29.74;98222.84;5040657;28;895;-80
2023/06/23 04:03:01;;;;;;;;;;;;;;;21.98;30.13;98222.81;5007393;28;1219;-80
2023/06/23 04:05:29;;;;;;;;;;;;;;;21.99;29.79;98222.38;5040163;28;947;-80
2023/06/23 04:07:54;;;;;;;;;;;;;;;21.98;29.95;98220.78;5039262;28;863;-80
2023/06/23 04:10:20;;;;;;;;;;;;;;;22.12;30.03;98228.16;5023077;28;1205;-80
2023/06/23 04:12:46;;;;;;;;;;;;;;;22.20;29.64;98232.41;5022002;28;1316;-80
2023/06/23 04:15:11;;;;;;;;;;;;;;;21.82;30.31;98232.91;5002106;28;1914;-80
2023/06/23 04:17:38;;;;;;;;;;;;;;;22.08;29.82;98230.25;4987764;28;1226;-81
2023/06/23 04:20:04;;;;;;;;;;;;;;;22.19;29.73;98236.47;5020172;28;1417;-80
2023/06/23 04:22:30;;;;;;;;;;;;;;;21.99;29.87;98232.91;5028096;28;767;-80
2023/06/23 04:24:55;;;;;;;;;;;;;;;22.01;30.01;98225.53;5001464;28;1324;-80
2023/06/23 04:27:21;;;;;;;;;;;;;;;22.20;29.83;98235.25;5036448;28;944;-80
2023/06/23 04:29:46;;;;;;;;;;;;;;;22.14;29.59;98234.19;5035728;28;1059;-80
2023/06/23 04:32:12;;;;;;;;;;;;;;;22.29;29.68;98224.06;5166217;22;3817;-80
2023/06/23 04:34:38;;;;;;;;;;;;;;;22.91;30.72;98228.94;5051013;28;1894;-80
2023/06/23 04:37:06;;;;;;;;;;;;;;;22.70;31.54;98225.41;5023444;28;1385;-80
2023/06/23 04:39:54;;;;;;;;;;;;;;;22.53;31.41;98227.47;5023548;28;1334;-81
2023/06/23 04:42:29;;;;;;;;;;;;;;;22.52;31.22;98234.41;4981745;28;1027;-80
2023/06/23 04:44:55;;;;;;;;;;;;;;;22.25;31.55;98234.69;4947595;28;1330;-80
2023/06/23 04:47:22;;;;;;;;;;;;;;;22.22;31.04;98235.56;4948335;28;1345;-80
2023/06/23 04:49:49;;;;;;;;;;;;;;;22.18;31.07;98232.06;4947818;28;1058;-80
2023/06/23 04:52:15;;;;;;;;;;;;;;;22.16;30.85;98231.69;4965784;28;876;-81
2023/06/23 04:54:42;;;;;;;;;;;;;;;22.10;30.94;98233.44;4951161;28;1899;-80
2023/06/23 04:57:08;;;;;;;;;;;;;;;22.01;30.59;98227.59;4950869;28;1535;-80
2023/06/23 04:59:34;;;;;;;;;;;;;;;21.92;30.76;98235.94;4937457;29;1583;-80
2023/06/23 05:01:59;;;;;;;;;;;;;;;22.14;29.99;98239.84;4927055;29;1221;-80
2023/06/23 05:04:25;;;;;;;;;;;;;;;22.07;30.07;98232.31;4926021;29;922;-80
2023/06/23 05:06:50;;;;;;;;;;;;;;;22.16;29.78;98243.03;4927444;29;928;-80
2023/06/23 05:09:16;;;;;;;;;;;;;;;22.02;29.99;98237.69;4934163;29;1379;-80
2023/06/23 05:11:41;;;;;;;;;;;;;;;22.08;29.53;98247.25;4930087;29;1207;-80
2023/06/23 05:14:07;;;;;;;;;;;;;;;21.93;29.57;98246.00;4928582;29;1907;-80
2023/06/23 05:16:32;;;;;;;;;;;;;;;22.15;29.08;98247.09;4929912;29;888;-80
2023/06/23 05:18:58;;;;;;;;;;;;;;;22.18;29.23;98257.56;4949266;28;1382;-80
2023/06/23 05:21:23;;;;;;;;;;;;;;;21.92;29.36;98255.75;4987580;28;851;-80
2023/06/23 05:23:50;;;;;;;;;;;;;;;21.95;29.11;98250.00;5002133;28;1043;-80
2023/06/23 05:26:15;;;;;;;;;;;;;;;21.94;29.26;98251.22;4988235;28;1092;-81
2023/06/23 05:28:41;;;;;;;;;;;;;;;21.77;29.35;98247.59;4985602;28;1276;-80
2023/06/23 05:31:07;;;;;;;;;;;;;;;22.06;28.95;98247.69;4987618;28;1251;-80
2023/06/23 05:33:33;;;;;;;;;;;;;;;22.21;28.64;98245.31;5015374;28;1902;-81
2023/06/23 05:35:59;;;;;;;;;;;;;;;22.22;28.32;98255.41;5012126;28;961;-80
2023/06/23 05:38:24;;;;;;;;;;;;;;;22.27;28.13;98263.38;5025489;28;2009;-80
2023/06/23 05:40:50;;;;;;;;;;;;;;;22.13;28.57;98260.13;5026679;28;1701;-80
2023/06/23 05:43:15;;;;;;;;;;;;;;;22.05;28.50;98259.47;5026408;28;974;-80
2023/06/23 05:45:41;;;;;;;;;;;;;;;22.08;28.70;98250.88;5027037;28;995;-80
2023/06/23 05:48:19;;;;;;;;;;;;;;;21.86;28.95;98258.28;5026748;28;867;-80
2023/06/23 05:50:45;;;;;;;;;;;;;;;21.81;29.23;98262.47;5026877;28;1297;-79
2023/06/23 05:53:11;;;;;;;;;;;;;;;21.95;28.65;98266.19;5009643;28;1116;-80
2023/06/23 05:55:42;;;;;;;;;;;;;;;22.18;28.48;98268.91;5027293;28;1980;-80
2023/06/23 05:58:08;;;;;;;;;;;;;;;22.12;28.48;98264.97;4982621;28;852;-80
2023/06/23 06:00:52;;;;;;;;;;;;;;;22.09;28.73;98271.53;4965944;28;1407;-81
2023/06/23 06:03:18;;;;;;;;;;;;;;;21.96;28.78;98273.44;4966267;28;1451;-80
2023/06/23 06:05:45;;;;;;;;;;;;;;;21.99;28.87;98272.56;4928245;29;1477;-81
2023/06/23 06:08:11;;;;;;;;;;;;;;;21.73;29.15;98271.56;4943709;29;1003;-80
2023/06/23 06:10:37;;;;;;;;;;;;;;;22.05;28.82;98265.13;4944671;29;910;-80
2023/06/23 06:13:02;;;;;;;;;;;;;;;21.99;28.90;98261.25;4944732;29;804;-80
2023/06/23 06:15:28;;;;;;;;;;;;;;;21.95;28.66;98266.19;4944543;29;1884;-80
2023/06/23 06:17:53;;;;;;;;;;;;;;;21.91;29.14;98265.47;4944361;29;957;-80
2023/06/23 06:20:19;;;;;;;;;;;;;;;22.02;28.51;98260.34;4960509;29;900;-81
2023/06/23 06:22:45;;;;;;;;;;;;;;;22.02;28.77;98263.19;4960567;29;1044;-80
2023/06/23 06:25:11;;;;;;;;;;;;;;;21.93;28.93;98263.00;4959333;29;1409;-80
2023/06/23 06:27:36;;;;;;;;;;;;;;;21.84;28.92;98267.25;4944294;29;926;-80
2023/06/23 06:30:02;;;;;;;;;;;;;;;21.81;28.91;98267.31;4994505;28;969;-80
2023/06/23 06:32:29;;;;;;;;;;;;;;;21.94;28.87;98258.94;4943946;29;1349;-80
2023/06/23 06:34:55;;;;;;;;;;;;;;;21.72;29.30;98259.44;4926022;29;1981;-81
2023/06/23 06:37:21;;;;;;;;;;;;;;;21.75;29.16;98264.22;4973214;28;890;-81
2023/06/23 06:39:47;;;;;;;;;;;;;;;21.72;29.35;98256.59;5001453;28;878;-80
2023/06/23 06:42:12;;;;;;;;;;;;;;;21.81;29.34;98256.81;5002783;28;1395;-80
2023/06/23 06:44:40;;;;;;;;;;;;;;;21.90;28.79;98263.88;4984635;28;1418;-80
2023/06/23 06:47:05;;;;;;;;;;;;;;;22.02;28.89;98260.34;4937951;28;1355;-80
2023/06/23 06:49:31;;;;;;;;;;;;;;;21.93;28.86;98257.34;4985103;28;1525;-81
2023/06/23 06:51:57;;;;;;;;;;;;;;;21.91;28.97;98256.97;5020503;28;1582;-81
2023/06/23 06:54:23;;;;;;;;;;;;;;;22.06;28.89;98261.06;5002038;28;1902;-81
2023/06/23 06:56:48;;;;;;;;;;;;;;;21.83;29.17;98254.31;5019249;28;1426;-80
2023/06/23 06:59:14;;;;;;;;;;;;;;;22.05;28.83;98259.47;4995401;28;1572;-80
2023/06/23 07:01:39;;;;;;;;;;;;;;;21.93;29.25;98243.19;4963403;28;1132;-80
2023/06/23 07:04:05;;;;;;;;;;;;;;;21.95;28.84;98246.34;4975613;28;875;-80
2023/06/23 07:06:31;;;;;;;;;;;;;;;21.98;28.90;98251.16;4939051;28;1160;-80
2023/06/23 07:08:56;;;;;;;;;;;;;;;21.74;29.36;98250.50;4980995;28;951;-80
2023/06/23 07:11:22;;;;;;;;;;;;;;;21.99;29.01;98238.56;4995746;28;1599;-80
2023/06/23 07:13:47;;;;;;;;;;;;;;;22.13;28.76;98248.81;5000048;28;1902;-80
2023/06/23 07:16:13;;;;;;;;;;;;;;;22.16;28.74;98253.56;5002316;28;1045;-80
2023/06/23 07:18:39;;;;;;;;;;;;;;;22.07;29.14;98248.47;4942431;29;898;-80
2023/06/23 07:21:04;;;;;;;;;;;;;;;22.16;28.72;98251.53;4928416;29;895;-80
2023/06/23 07:23:30;;;;;;;;;;;;;;;21.98;29.01;98245.50;4925866;29;976;-80
2023/06/23 07:25:56;;;;;;;;;;;;;;;22.15;29.08;98252.78;4928912;29;1176;-80
2023/06/23 07:28:21;;;;;;;;;;;;;;;22.14;29.04;98248.34;4909266;29;1610;-80
2023/06/23 07:30:47;;;;;;;;;;;;;;;22.27;28.82;98249.22;4943543;29;865;-80
2023/06/23 07:33:12;;;;;;;;;;;;;;;21.95;29.45;98250.00;4946973;28;1555;-80
2023/06/23 07:35:38;;;;;;;;;;;;;;;21.85;29.28;98249.00;4965257;28;1984;-80
2023/06/23 07:38:04;;;;;;;;;;;;;;;21.95;29.33;98249.19;4980437;28;1047;-80
2023/06/23 07:40:29;;;;;;;;;;;;;;;22.07;29.07;98251.31;4926824;29;1202;-80
2023/06/23 07:42:55;;;;;;;;;;;;;;;22.01;29.17;98241.75;4941807;29;1876;-80
2023/06/23 07:45:20;;;;;;;;;;;;;;;21.82;29.31;98252.72;4941938;29;1176;-80
2023/06/23 07:47:46;;;;;;;;;;;;;;;21.94;29.19;98247.59;4942862;29;1044;-80
2023/06/23 07:50:11;;;;;;;;;;;;;;;21.82;29.75;98247.06;4972736;28;1526;-80
2023/06/23 07:52:37;;;;;;;;;;;;;;;21.85;29.72;98257.50;4967330;28;1590;-80
2023/06/23 07:55:03;;;;;;;;;;;;;;;22.00;29.49;98246.63;4980715;28;2025;-79
2023/06/23 07:57:28;;;;;;;;;;;;;;;21.74;29.58;98259.78;5014185;28;1560;-79
2023/06/23 07:59:53;;;;;;;;;;;;;;;21.95;29.66;98247.16;4981520;28;904;-79
2023/06/23 08:02:19;;;;;;;;;;;;;;;21.91;29.61;98254.94;4982302;28;1717;-79
2023/06/23 08:04:44;;;;;;;;;;;;;;;21.99;29.29;98249.91;4981552;28;943;-79
2023/06/23 08:07:10;;;;;;;;;;;;;;;22.02;29.40;98249.00;4982389;28;1124;-79
2023/06/23 08:09:35;;;;;;;;;;;;;;;21.99;29.41;98250.69;4981472;28;1021;-79
2023/06/23 08:12:01;;;;;;;;;;;;;;;21.84;29.71;98255.91;5028758;28;850;-79
2023/06/23 08:14:26;;;;;;;;;;;;;;;22.03;29.52;98264.78;5038190;28;1973;-79
2023/06/23 08:16:52;;;;;;;;;;;;;;;21.87;29.85;98254.25;5021890;28;838;-79
2023/06/23 08:19:21;;;;;;;;;;;;;;;22.02;29.62;98243.34;4996913;28;956;-79
2023/06/23 08:21:50;;;;;;;;;;;;;;;22.04;29.43;98252.22;5014174;28;837;-79
2023/06/23 08:24:15;;;;;;;;;;;;;;;22.00;29.46;98251.50;4980803;28;937;-79
2023/06/23 08:26:41;;;;;;;;;;;;;;;22.16;29.12;98243.03;4965306;28;1247;-79
2023/06/23 08:29:06;;;;;;;;;;;;;;;21.96;29.38;98240.25;4981009;28;971;-79
2023/06/23 08:31:32;;;;;;;;;;;;;;;21.93;29.49;98240.34;4982279;28;931;-79
2023/06/23 08:33:57;;;;;;;;;;;;;;;21.83;29.67;98243.00;4938709;29;1906;-79
2023/06/23 08:36:23;;;;;;;;;;;;;;;21.90;29.50;98236.34;4940266;29;950;-79
2023/06/23 08:38:49;;;;;;;;;;;;;;;21.95;29.52;98232.19;4922318;29;933;-79
2023/06/23 08:41:15;;;;;;;;;;;;;;;21.85;29.63;98234.84;4920711;29;1643;-79
2023/06/23 08:43:41;;;;;;;;;;;;;;;21.86;29.64;98229.97;4912638;29;1716;-80
2023/06/23 08:46:07;;;;;;;;;;;;;;;21.83;29.92;98237.31;4921619;29;1601;-79
2023/06/23 08:48:32;;;;;;;;;;;;;;;21.87;29.58;98231.59;4918692;29;1000;-79
2023/06/23 08:50:59;;;;;;;;;;;;;;;21.90;29.92;98238.38;4970154;28;1294;-79
2023/06/23 08:53:25;;;;;;;;;;;;;;;22.00;29.67;98240.16;4977086;28;1005;-79
2023/06/23 08:55:50;;;;;;;;;;;;;;;21.97;29.81;98235.41;4962208;28;1987;-79
2023/06/23 08:58:17;;;;;;;;;;;;;;;22.07;29.41;98237.97;4970472;28;1725;-79
2023/06/23 09:00:43;;;;;;;;;;;;;;;22.01;29.63;98236.09;4958322;28;949;-78
2023/06/23 09:03:08;;;;;;;;;;;;;;;22.21;29.09;98231.16;4926067;29;917;-79
2023/06/23 09:05:34;;;;;;;;;;;;;;;22.09;29.29;98231.84;4932619;29;989;-79
2023/06/23 09:08:00;;;;;;;;;;;;;;;22.22;29.15;98234.78;4926133;29;1774;-79
2023/06/23 09:10:25;;;;;;;;;;;;;;;21.75;29.90;98224.56;4948879;28;1770;-79
2023/06/23 09:12:59;;;;;;;;;;;;;;;22.08;29.41;98225.38;4977318;28;888;-79
2023/06/23 09:15:25;;;;;;;;;;;;;;;21.88;29.90;98221.03;4938857;29;1989;-79
2023/06/23 09:17:50;;;;;;;;;;;;;;;21.98;29.87;98225.66;4937769;28;1706;-79
2023/06/23 09:20:16;;;;;;;;;;;;;;;21.98;29.69;98220.00;4941049;29;1718;-79
2023/06/23 09:22:41;;;;;;;;;;;;;;;22.02;29.42;98217.84;4974368;28;827;-79
2023/06/23 09:25:07;;;;;;;;;;;;;;;21.97;29.41;98207.84;4957640;29;912;-79
2023/06/23 09:27:41;;;;;;;;;;;;;;;22.24;29.15;98216.09;4942381;29;1096;-80
2023/06/23 09:30:07;;;;;;;;;;;;;;;22.20;29.22;98215.41;4973901;28;1749;-79
2023/06/23 09:32:33;;;;;;;;;;;;;;;21.92;29.96;98199.09;4958628;28;1123;-79
2023/06/23 09:34:58;;;;;;;;;;;;;;;22.01;29.58;98204.91;4930347;29;1981;-79
2023/06/23 09:37:24;;;;;;;;;;;;;;;22.19;29.39;98213.00;4904370;29;1660;-79
2023/06/23 09:39:49;;;;;;;;;;;;;;;21.90;29.82;98210.06;4905446;29;1007;-79
2023/06/23 09:42:15;;;;;;;;;;;;;;;22.21;29.21;98216.97;4919153;29;1547;-79
2023/06/23 09:44:48;;;;;;;;;;;;;;;22.14;29.34;98216.38;4922359;29;2100;-79
2023/06/23 09:47:14;;;;;;;;;;;;;;;21.88;29.93;98215.38;4956300;28;940;-79
2023/06/23 09:49:43;;;;;;;;;;;;;;;22.05;29.69;98222.63;4979855;28;978;-79
2023/06/23 09:52:13;;;;;;;;;;;;;;;21.98;29.81;98220.00;4982024;28;989;-79
2023/06/23 09:54:39;;;;;;;;;;;;;;;22.13;29.56;98215.59;4998866;28;1906;-80
2023/06/23 09:57:06;;;;;;;;;;;;;;;21.94;29.92;98222.09;4984315;28;1581;-79
2023/06/23 09:59:32;;;;;;;;;;;;;;;22.21;29.26;98216.19;4963711;28;1220;-79
2023/06/23 10:01:57;;;;;;;;;;;;;;;22.26;29.10;98213.63;4981546;28;1608;-79
2023/06/23 10:04:32;;;;;;;;;;;;;;;22.02;29.72;98215.84;4969309;28;1754;-79
2023/06/23 10:06:57;;;;;;;;;;;;;;;21.75;30.21;98213.22;4986189;28;1085;-79
2023/06/23 10:09:23;;;;;;;;;;;;;;;22.04;29.91;98218.22;5019589;28;934;-79
2023/06/23 10:11:49;;;;;;;;;;;;;;;22.19;29.09;98219.47;5029927;28;1684;-79
2023/06/23 10:14:15;;;;;;;;;;;;;;;22.01;29.83;98221.91;5002589;28;1906;-79
2023/06/23 10:16:41;;;;;;;;;;;;;;;22.23;29.46;98211.69;5003887;28;1962;-79
2023/06/23 10:19:07;;;;;;;;;;;;;;;22.11;29.46;98212.38;5018818;28;981;-79
2023/06/23 10:21:33;;;;;;;;;;;;;;;22.18;29.53;98212.22;5002102;28;1866;-78
2023/06/23 10:23:59;;;;;;;;;;;;;;;21.99;29.64;98207.41;5018673;28;1228;-79
2023/06/23 10:26:25;;;;;;;;;;;;;;;22.09;29.40;98215.63;5002802;28;969;-79
2023/06/23 10:28:51;;;;;;;;;;;;;;;22.24;29.25;98212.47;4985687;28;1724;-79
2023/06/23 10:31:16;;;;;;;;;;;;;;;22.10;29.52;98205.94;5017995;28;1544;-79
2023/06/23 10:33:42;;;;;;;;;;;;;;;22.19;29.29;98207.34;4985183;28;1983;-79
2023/06/23 10:36:08;;;;;;;;;;;;;;;21.96;29.60;98197.75;5003003;28;1271;-79
2023/06/23 10:38:33;;;;;;;;;;;;;;;22.03;29.82;98206.09;5001179;28;1018;-79
2023/06/23 10:40:59;;;;;;;;;;;;;;;22.22;29.07;98207.22;5001525;28;1850;-79
2023/06/23 10:43:25;;;;;;;;;;;;;;;22.04;29.59;98201.22;5001479;28;1177;-79
2023/06/23 10:45:50;;;;;;;;;;;;;;;22.11;29.61;98206.72;4948794;29;1172;-79
2023/06/23 10:48:16;;;;;;;;;;;;;;;22.07;29.62;98205.97;4943427;29;955;-79
2023/06/23 10:50:41;;;;;;;;;;;;;;;21.98;29.80;98203.78;4912228;29;1771;-79
2023/06/23 10:53:10;;;;;;;;;;;;;;;21.88;29.71;98204.06;4959552;29;980;-79
2023/06/23 10:55:40;;;;;;;;;;;;;;;21.90;30.04;98201.56;4959588;28;1898;-79
2023/06/23 10:58:12;;;;;;;;;;;;;;;22.00;29.77;98194.84;4943008;29;951;-79
2023/06/23 11:00:38;;;;;;;;;;;;;;;22.24;29.48;98186.97;4943745;29;1722;-79
2023/06/23 11:03:10;;;;;;;;;;;;;;;22.16;29.30;98194.06;4943867;29;1080;-79
2023/06/23 11:05:42;;;;;;;;;;;;;;;22.12;29.26;98179.97;4959933;29;1013;-79
2023/06/23 11:08:12;;;;;;;;;;;;;;;22.20;29.45;98181.38;4943029;29;1112;-79
2023/06/23 11:10:50;;;;;;;;;;;;;;;22.19;29.58;98179.00;4943901;29;1463;-79
2023/06/23 11:13:16;;;;;;;;;;;;;;;22.30;29.20;98171.81;4958843;28;895;-79
2023/06/23 11:15:47;;;;;;;;;;;;;;;22.08;29.60;98167.91;4960059;29;1989;-80
2023/06/23 11:18:14;;;;;;;;;;;;;;;22.24;29.42;98179.25;4945487;29;996;-79
2023/06/23 11:20:41;;;;;;;;;;;;;;;22.09;29.56;98173.13;4958935;28;1939;-80
2023/06/23 11:23:06;;;;;;;;;;;;;;;22.00;29.50;98178.63;4959427;29;1183;-79
2023/06/23 11:25:38;;;;;;;;;;;;;;;22.15;29.40;98173.41;4959701;29;1082;-79
2023/06/23 11:28:22;;;;;;;;;;;;;;;22.33;29.18;98168.09;4979167;28;918;-80
2023/06/23 11:31:07;;;;;;;;;;;;;;;21.89;30.02;98168.81;4998295;28;1740;-79
2023/06/23 11:33:33;;;;;;;;;;;;;;;21.92;29.97;98177.22;5012127;28;1801;-79
2023/06/23 11:36:00;;;;;;;;;;;;;;;22.11;29.34;98167.03;5018981;28;1981;-80
2023/06/23 11:38:26;;;;;;;;;;;;;;;22.20;29.18;98170.03;5001175;28;1019;-79
2023/06/23 11:40:52;;;;;;;;;;;;;;;22.10;29.49;98165.44;5002269;28;886;-79
2023/06/23 11:43:18;;;;;;;;;;;;;;;22.15;29.44;98167.75;5000697;28;984;-79
2023/06/23 11:45:49;;;;;;;;;;;;;;;22.16;29.26;98162.88;5017730;28;1485;-79
2023/06/23 11:48:15;;;;;;;;;;;;;;;22.30;29.29;98157.63;5018106;28;887;-79
2023/06/23 11:50:41;;;;;;;;;;;;;;;21.95;29.58;98164.19;5020080;28;950;-79
2023/06/23 11:53:07;;;;;;;;;;;;;;;22.18;29.19;98169.72;5018439;28;1204;-80
2023/06/23 11:55:33;;;;;;;;;;;;;;;22.18;29.37;98169.72;5034675;28;1993;-79
2023/06/23 11:57:58;;;;;;;;;;;;;;;22.15;29.21;98173.41;5017875;28;1099;-78
2023/06/23 12:00:24;;;;;;;;;;;;;;;22.15;29.62;98164.13;5002248;28;1230;-79
2023/06/23 12:02:50;;;;;;;;;;;;;;;22.20;29.49;98170.03;5017381;28;1388;-79
2023/06/23 12:05:15;;;;;;;;;;;;;;;22.22;29.09;98167.56;4999369;28;1484;-79
2023/06/23 12:07:41;;;;;;;;;;;;;;;22.24;29.34;98162.25;5000784;28;1994;-79
2023/06/23 12:10:07;;;;;;;;;;;;;;;21.88;29.83;98164.38;4984425;28;1145;-79
2023/06/23 12:12:32;;;;;;;;;;;;;;;21.95;29.68;98158.53;5001142;28;979;-79
2023/06/23 12:14:59;;;;;;;;;;;;;;;21.98;29.61;98154.81;4999318;28;1892;-80
2023/06/23 12:17:25;;;;;;;;;;;;;;;22.12;29.39;98157.28;5001857;28;778;-79
2023/06/23 12:19:51;;;;;;;;;;;;;;;22.08;29.68;98156.59;5016579;28;989;-79
2023/06/23 12:22:17;;;;;;;;;;;;;;;22.27;29.37;98152.84;4984992;28;889;-79
2023/06/23 12:24:42;;;;;;;;;;;;;;;22.08;29.55;98145.25;4938313;29;1672;-79
2023/06/23 12:27:09;;;;;;;;;;;;;;;22.25;29.21;98144.00;4939788;29;999;-80
2023/06/23 12:29:35;;;;;;;;;;;;;;;22.00;29.63;98143.84;4939261;29;973;-79
2023/06/23 12:32:02;;;;;;;;;;;;;;;22.16;29.54;98145.88;4921333;29;1242;-80
2023/06/23 12:34:34;;;;;;;;;;;;;;;22.14;29.28;98143.50;4919256;29;1994;-80
2023/06/23 12:37:01;;;;;;;;;;;;;;;21.94;29.28;98097.44;4921113;29;1302;-79
2023/06/23 12:39:28;;;;;;;;;;;;;;;22.12;29.45;98139.50;4923540;29;1147;-79
2023/06/23 12:41:54;;;;;;;;;;;;;;;22.31;29.18;98142.22;4939847;29;903;-79
2023/06/23 12:44:21;;;;;;;;;;;;;;;21.91;29.60;98146.50;4957762;29;1751;-79
2023/06/23 12:46:46;;;;;;;;;;;;;;;21.89;29.83;98143.31;4958994;29;978;-79
2023/06/23 12:49:11;;;;;;;;;;;;;;;22.01;29.79;98142.59;4957960;29;943;-79
2023/06/23 12:51:37;;;;;;;;;;;;;;;22.20;29.56;98147.38;4958499;29;1105;-79
2023/06/23 12:54:03;;;;;;;;;;;;;;;22.31;28.88;98132.91;4957845;29;1969;-78
2023/06/23 12:56:28;;;;;;;;;;;;;;;22.15;29.39;98136.56;4974890;28;891;-79
2023/06/23 12:58:54;;;;;;;;;;;;;;;22.03;29.39;98146.59;4977865;28;962;-79